Dunswell, United Kingdom
Current Conditions -  °F | °C
As of 10:50 PM on Thursday 27 Nov 2014 (Local Time) from EGXV Reporting Station
Haze Haze  
Wind Chill: 45°   Ceiling: 7000
Heat Index: 45°   Visibility: 4mi
Dew Point: 45°   Wind: 2mph
Humidity: 100%   Direction: 20°NNE
Pressure: 29.65"   Gusts: NA
Location:  53.8°N, 0.37°W
Report Text: EGXV 272250Z AUTO 02002KT 6000 BR FEW010/// BKN070/// 07/07 Q1004
Loading
Personal Weather Stations






























Interactive Weather Map New forecast layout! Learn more

10-Day Weather Forecast

Advertisements
Track Severe Weather on mobile